sensor_id;sensor_type;location;lat;lon;timestamp;P1;durP1;ratioP1;P2;durP2;ratioP2
7418;SDS011;3751;51.852;9.718;2022-08-03T00:01:40;5.17;;;4.30;;
7418;SDS011;3751;51.852;9.718;2022-08-03T00:04:07;5.20;;;4.80;;
7418;SDS011;3751;51.852;9.718;2022-08-03T00:06:33;4.90;;;4.30;;
7418;SDS011;3751;51.852;9.718;2022-08-03T00:09:00;5.50;;;4.97;;
7418;SDS011;3751;51.852;9.718;2022-08-03T00:11:26;4.40;;;4.10;;
7418;SDS011;3751;51.852;9.718;2022-08-03T00:13:52;5.20;;;4.77;;
7418;SDS011;3751;51.852;9.718;2022-08-03T00:16:18;5.70;;;5.10;;
7418;SDS011;3751;51.852;9.718;2022-08-03T00:18:44;5.20;;;4.70;;
7418;SDS011;3751;51.852;9.718;2022-08-03T00:21:10;5.10;;;4.60;;
7418;SDS011;3751;51.852;9.718;2022-08-03T00:23:36;4.73;;;4.33;;
7418;SDS011;3751;51.852;9.718;2022-08-03T00:26:02;5.23;;;4.73;;
7418;SDS011;3751;51.852;9.718;2022-08-03T00:28:29;4.90;;;4.37;;
7418;SDS011;3751;51.852;9.718;2022-08-03T00:30:55;5.20;;;4.70;;
7418;SDS011;3751;51.852;9.718;2022-08-03T00:33:21;5.70;;;5.20;;
7418;SDS011;3751;51.852;9.718;2022-08-03T00:35:47;5.20;;;4.57;;
7418;SDS011;3751;51.852;9.718;2022-08-03T00:38:13;5.17;;;4.67;;
7418;SDS011;3751;51.852;9.718;2022-08-03T00:40:39;6.30;;;4.73;;
7418;SDS011;3751;51.852;9.718;2022-08-03T00:43:06;4.67;;;4.23;;
7418;SDS011;3751;51.852;9.718;2022-08-03T00:45:34;7.23;;;5.17;;
7418;SDS011;3751;51.852;9.718;2022-08-03T00:48:00;6.20;;;4.97;;
7418;SDS011;3751;51.852;9.718;2022-08-03T00:50:28;5.30;;;4.80;;
7418;SDS011;3751;51.852;9.718;2022-08-03T00:52:55;5.53;;;4.50;;
7418;SDS011;3751;51.852;9.718;2022-08-03T00:55:21;6.43;;;4.70;;
7418;SDS011;3751;51.852;9.718;2022-08-03T00:57:47;5.30;;;4.80;;
7418;SDS011;3751;51.852;9.718;2022-08-03T01:00:15;4.93;;;4.53;;
7418;SDS011;3751;51.852;9.718;2022-08-03T01:02:41;5.40;;;5.00;;
7418;SDS011;3751;51.852;9.718;2022-08-03T01:05:08;5.27;;;4.77;;
7418;SDS011;3751;51.852;9.718;2022-08-03T01:10:02;5.20;;;4.70;;
7418;SDS011;3751;51.852;9.718;2022-08-03T01:12:34;6.50;;;5.43;;
7418;SDS011;3751;51.852;9.718;2022-08-03T01:15:07;6.10;;;4.83;;
7418;SDS011;3751;51.852;9.718;2022-08-03T01:20:13;5.10;;;4.70;;
7418;SDS011;3751;51.852;9.718;2022-08-03T01:27:57;5.70;;;5.20;;
7418;SDS011;3751;51.852;9.718;2022-08-03T01:30:29;4.93;;;4.53;;
7418;SDS011;3751;51.852;9.718;2022-08-03T01:32:59;5.90;;;5.30;;
7418;SDS011;3751;51.852;9.718;2022-08-03T01:35:34;5.40;;;4.50;;
7418;SDS011;3751;51.852;9.718;2022-08-03T01:38:02;5.70;;;5.20;;
7418;SDS011;3751;51.852;9.718;2022-08-03T01:40:29;4.90;;;4.50;;
7418;SDS011;3751;51.852;9.718;2022-08-03T01:42:56;5.50;;;4.80;;
7418;SDS011;3751;51.852;9.718;2022-08-03T01:45:24;6.00;;;5.50;;
7418;SDS011;3751;51.852;9.718;2022-08-03T01:47:52;8.03;;;5.30;;
7418;SDS011;3751;51.852;9.718;2022-08-03T01:50:20;5.37;;;4.87;;
7418;SDS011;3751;51.852;9.718;2022-08-03T01:52:47;6.07;;;5.07;;
7418;SDS011;3751;51.852;9.718;2022-08-03T01:55:15;5.60;;;5.10;;
7418;SDS011;3751;51.852;9.718;2022-08-03T01:57:41;6.07;;;5.47;;
7418;SDS011;3751;51.852;9.718;2022-08-03T02:00:09;5.90;;;4.77;;
7418;SDS011;3751;51.852;9.718;2022-08-03T02:02:38;5.83;;;5.23;;
7418;SDS011;3751;51.852;9.718;2022-08-03T02:05:06;7.70;;;4.87;;
7418;SDS011;3751;51.852;9.718;2022-08-03T02:07:34;5.40;;;4.90;;
7418;SDS011;3751;51.852;9.718;2022-08-03T02:10:02;5.90;;;5.03;;
7418;SDS011;3751;51.852;9.718;2022-08-03T02:12:29;6.00;;;4.80;;
7418;SDS011;3751;51.852;9.718;2022-08-03T02:14:56;5.40;;;4.40;;
7418;SDS011;3751;51.852;9.718;2022-08-03T02:17:22;5.47;;;4.87;;
7418;SDS011;3751;51.852;9.718;2022-08-03T02:19:49;5.40;;;4.90;;
7418;SDS011;3751;51.852;9.718;2022-08-03T02:22:15;5.70;;;4.70;;
7418;SDS011;3751;51.852;9.718;2022-08-03T02:24:42;6.30;;;5.10;;
7418;SDS011;3751;51.852;9.718;2022-08-03T02:27:14;6.47;;;5.53;;
7418;SDS011;3751;51.852;9.718;2022-08-03T02:29:43;6.43;;;5.83;;
7418;SDS011;3751;51.852;9.718;2022-08-03T02:32:12;5.67;;;5.17;;
7418;SDS011;3751;51.852;9.718;2022-08-03T02:34:39;6.53;;;5.07;;
7418;SDS011;3751;51.852;9.718;2022-08-03T02:37:06;7.63;;;5.43;;
7418;SDS011;3751;51.852;9.718;2022-08-03T02:39:33;6.70;;;5.27;;
7418;SDS011;3751;51.852;9.718;2022-08-03T02:42:00;8.10;;;5.20;;
7418;SDS011;3751;51.852;9.718;2022-08-03T02:44:26;5.73;;;5.00;;
7418;SDS011;3751;51.852;9.718;2022-08-03T02:46:54;8.23;;;5.63;;
7418;SDS011;3751;51.852;9.718;2022-08-03T02:49:21;5.87;;;5.37;;
7418;SDS011;3751;51.852;9.718;2022-08-03T02:51:49;10.63;;;5.27;;
7418;SDS011;3751;51.852;9.718;2022-08-03T02:54:17;5.90;;;5.30;;
7418;SDS011;3751;51.852;9.718;2022-08-03T02:56:44;10.73;;;5.40;;
7418;SDS011;3751;51.852;9.718;2022-08-03T02:59:11;6.77;;;5.33;;
7418;SDS011;3751;51.852;9.718;2022-08-03T03:01:37;6.00;;;5.47;;
7418;SDS011;3751;51.852;9.718;2022-08-03T03:04:04;6.17;;;5.57;;
7418;SDS011;3751;51.852;9.718;2022-08-03T03:06:30;5.53;;;5.00;;
7418;SDS011;3751;51.852;9.718;2022-08-03T03:08:57;5.77;;;4.90;;
7418;SDS011;3751;51.852;9.718;2022-08-03T03:11:24;6.63;;;5.70;;
7418;SDS011;3751;51.852;9.718;2022-08-03T03:13:50;5.70;;;4.70;;
7418;SDS011;3751;51.852;9.718;2022-08-03T03:16:17;6.10;;;5.53;;
7418;SDS011;3751;51.852;9.718;2022-08-03T03:18:44;5.60;;;5.10;;
7418;SDS011;3751;51.852;9.718;2022-08-03T03:21:11;6.00;;;5.50;;
7418;SDS011;3751;51.852;9.718;2022-08-03T03:23:38;6.73;;;5.60;;
7418;SDS011;3751;51.852;9.718;2022-08-03T03:26:05;7.50;;;5.33;;
7418;SDS011;3751;51.852;9.718;2022-08-03T03:28:31;5.67;;;5.17;;
7418;SDS011;3751;51.852;9.718;2022-08-03T03:30:57;6.97;;;5.50;;
7418;SDS011;3751;51.852;9.718;2022-08-03T03:33:24;9.03;;;5.97;;
7418;SDS011;3751;51.852;9.718;2022-08-03T03:35:50;6.30;;;5.67;;
7418;SDS011;3751;51.852;9.718;2022-08-03T03:38:19;6.30;;;5.70;;
7418;SDS011;3751;51.852;9.718;2022-08-03T03:40:45;7.83;;;6.00;;
7418;SDS011;3751;51.852;9.718;2022-08-03T03:43:11;6.97;;;5.90;;
7418;SDS011;3751;51.852;9.718;2022-08-03T03:45:39;6.90;;;6.30;;
7418;SDS011;3751;51.852;9.718;2022-08-03T03:48:06;6.27;;;5.57;;
7418;SDS011;3751;51.852;9.718;2022-08-03T03:50:33;6.07;;;5.57;;
7418;SDS011;3751;51.852;9.718;2022-08-03T03:53:03;6.83;;;5.50;;
7418;SDS011;3751;51.852;9.718;2022-08-03T03:55:29;8.13;;;5.80;;
7418;SDS011;3751;51.852;9.718;2022-08-03T03:57:55;5.90;;;5.30;;
7418;SDS011;3751;51.852;9.718;2022-08-03T04:00:21;6.23;;;5.63;;
7418;SDS011;3751;51.852;9.718;2022-08-03T04:02:47;10.63;;;5.67;;
7418;SDS011;3751;51.852;9.718;2022-08-03T04:05:14;8.10;;;5.77;;
7418;SDS011;3751;51.852;9.718;2022-08-03T04:08:15;6.20;;;5.60;;
7418;SDS011;3751;51.852;9.718;2022-08-03T04:13:30;6.70;;;6.10;;
7418;SDS011;3751;51.852;9.718;2022-08-03T04:15:58;10.70;;;6.07;;
7418;SDS011;3751;51.852;9.718;2022-08-03T04:18:24;6.23;;;5.20;;
7418;SDS011;3751;51.852;9.718;2022-08-03T04:20:52;7.10;;;5.67;;
7418;SDS011;3751;51.852;9.718;2022-08-03T04:23:21;6.70;;;5.87;;
7418;SDS011;3751;51.852;9.718;2022-08-03T04:25:49;8.70;;;6.23;;
7418;SDS011;3751;51.852;9.718;2022-08-03T04:28:16;6.50;;;5.60;;
7418;SDS011;3751;51.852;9.718;2022-08-03T04:30:43;6.60;;;6.03;;
7418;SDS011;3751;51.852;9.718;2022-08-03T04:33:12;9.33;;;6.00;;
7418;SDS011;3751;51.852;9.718;2022-08-03T04:35:39;6.33;;;5.77;;
7418;SDS011;3751;51.852;9.718;2022-08-03T04:38:06;6.33;;;5.73;;
7418;SDS011;3751;51.852;9.718;2022-08-03T04:40:34;5.97;;;5.47;;
7418;SDS011;3751;51.852;9.718;2022-08-03T04:43:01;5.93;;;5.43;;
7418;SDS011;3751;51.852;9.718;2022-08-03T04:45:27;6.67;;;5.90;;
7418;SDS011;3751;51.852;9.718;2022-08-03T04:47:55;6.90;;;6.30;;
7418;SDS011;3751;51.852;9.718;2022-08-03T04:50:21;7.30;;;6.40;;
7418;SDS011;3751;51.852;9.718;2022-08-03T04:52:48;8.47;;;7.30;;
7418;SDS011;3751;51.852;9.718;2022-08-03T04:55:24;7.87;;;6.60;;
7418;SDS011;3751;51.852;9.718;2022-08-03T04:57:51;7.63;;;6.93;;
7418;SDS011;3751;51.852;9.718;2022-08-03T05:00:17;7.60;;;6.73;;
7418;SDS011;3751;51.852;9.718;2022-08-03T05:02:43;8.07;;;5.80;;
7418;SDS011;3751;51.852;9.718;2022-08-03T05:05:09;9.23;;;6.43;;
7418;SDS011;3751;51.852;9.718;2022-08-03T05:07:36;7.07;;;6.37;;
7418;SDS011;3751;51.852;9.718;2022-08-03T05:10:05;7.23;;;6.53;;
7418;SDS011;3751;51.852;9.718;2022-08-03T05:12:32;7.23;;;6.53;;
7418;SDS011;3751;51.852;9.718;2022-08-03T05:14:58;7.60;;;6.77;;
7418;SDS011;3751;51.852;9.718;2022-08-03T05:17:24;7.90;;;7.03;;
7418;SDS011;3751;51.852;9.718;2022-08-03T05:19:50;9.30;;;7.27;;
7418;SDS011;3751;51.852;9.718;2022-08-03T05:22:16;10.13;;;7.23;;
7418;SDS011;3751;51.852;9.718;2022-08-03T05:24:42;7.40;;;6.63;;
7418;SDS011;3751;51.852;9.718;2022-08-03T05:27:08;7.80;;;7.00;;
7418;SDS011;3751;51.852;9.718;2022-08-03T05:29:41;8.57;;;7.77;;
7418;SDS011;3751;51.852;9.718;2022-08-03T05:32:07;8.47;;;7.67;;
7418;SDS011;3751;51.852;9.718;2022-08-03T05:34:33;9.20;;;7.30;;
7418;SDS011;3751;51.852;9.718;2022-08-03T05:36:59;9.30;;;7.77;;
7418;SDS011;3751;51.852;9.718;2022-08-03T05:39:25;8.13;;;7.43;;
7418;SDS011;3751;51.852;9.718;2022-08-03T05:41:51;7.73;;;6.93;;
7418;SDS011;3751;51.852;9.718;2022-08-03T05:44:17;8.10;;;7.30;;
7418;SDS011;3751;51.852;9.718;2022-08-03T05:46:43;8.07;;;7.33;;
7418;SDS011;3751;51.852;9.718;2022-08-03T05:49:09;8.63;;;7.27;;
7418;SDS011;3751;51.852;9.718;2022-08-03T05:51:35;10.00;;;7.40;;
7418;SDS011;3751;51.852;9.718;2022-08-03T05:54:01;10.67;;;9.17;;
7418;SDS011;3751;51.852;9.718;2022-08-03T05:56:27;7.80;;;7.10;;
7418;SDS011;3751;51.852;9.718;2022-08-03T05:58:53;10.13;;;7.80;;
7418;SDS011;3751;51.852;9.718;2022-08-03T06:01:19;8.10;;;7.40;;
7418;SDS011;3751;51.852;9.718;2022-08-03T06:03:46;10.73;;;9.27;;
7418;SDS011;3751;51.852;9.718;2022-08-03T06:06:13;8.03;;;7.23;;
7418;SDS011;3751;51.852;9.718;2022-08-03T06:08:39;8.47;;;7.67;;
7418;SDS011;3751;51.852;9.718;2022-08-03T06:11:06;10.20;;;8.20;;
7418;SDS011;3751;51.852;9.718;2022-08-03T06:13:32;8.63;;;7.83;;
7418;SDS011;3751;51.852;9.718;2022-08-03T06:15:58;11.27;;;9.40;;
7418;SDS011;3751;51.852;9.718;2022-08-03T06:18:24;9.20;;;7.43;;
7418;SDS011;3751;51.852;9.718;2022-08-03T06:20:51;11.63;;;8.80;;
7418;SDS011;3751;51.852;9.718;2022-08-03T06:23:17;8.93;;;8.13;;
7418;SDS011;3751;51.852;9.718;2022-08-03T06:25:43;10.17;;;8.80;;
7418;SDS011;3751;51.852;9.718;2022-08-03T06:28:09;9.13;;;8.10;;
7418;SDS011;3751;51.852;9.718;2022-08-03T06:30:36;11.03;;;9.93;;
7418;SDS011;3751;51.852;9.718;2022-08-03T06:33:02;9.23;;;8.33;;
7418;SDS011;3751;51.852;9.718;2022-08-03T06:35:28;12.07;;;8.17;;
7418;SDS011;3751;51.852;9.718;2022-08-03T06:37:54;8.57;;;7.77;;
7418;SDS011;3751;51.852;9.718;2022-08-03T06:40:21;8.70;;;7.90;;
7418;SDS011;3751;51.852;9.718;2022-08-03T06:42:58;10.30;;;8.30;;
7418;SDS011;3751;51.852;9.718;2022-08-03T06:45:24;10.87;;;8.27;;
7418;SDS011;3751;51.852;9.718;2022-08-03T06:48:00;8.93;;;7.97;;
7418;SDS011;3751;51.852;9.718;2022-08-03T06:50:26;8.03;;;7.23;;
7418;SDS011;3751;51.852;9.718;2022-08-03T06:52:52;8.60;;;7.90;;
7418;SDS011;3751;51.852;9.718;2022-08-03T06:55:18;9.57;;;6.97;;
7418;SDS011;3751;51.852;9.718;2022-08-03T06:57:44;6.80;;;6.20;;
7418;SDS011;3751;51.852;9.718;2022-08-03T07:00:10;7.93;;;6.77;;
7418;SDS011;3751;51.852;9.718;2022-08-03T07:02:37;7.70;;;7.00;;
7418;SDS011;3751;51.852;9.718;2022-08-03T07:05:03;7.67;;;6.97;;
7418;SDS011;3751;51.852;9.718;2022-08-03T07:07:30;7.40;;;6.67;;
7418;SDS011;3751;51.852;9.718;2022-08-03T07:09:56;8.50;;;7.70;;
7418;SDS011;3751;51.852;9.718;2022-08-03T07:12:22;8.63;;;7.73;;
7418;SDS011;3751;51.852;9.718;2022-08-03T07:14:47;10.20;;;7.73;;
7418;SDS011;3751;51.852;9.718;2022-08-03T07:17:13;9.40;;;7.83;;
7418;SDS011;3751;51.852;9.718;2022-08-03T07:19:39;8.53;;;7.20;;
7418;SDS011;3751;51.852;9.718;2022-08-03T07:22:05;9.10;;;7.70;;
7418;SDS011;3751;51.852;9.718;2022-08-03T07:24:32;8.90;;;7.90;;
7418;SDS011;3751;51.852;9.718;2022-08-03T07:26:58;8.07;;;7.30;;
7418;SDS011;3751;51.852;9.718;2022-08-03T07:29:25;8.13;;;7.30;;
7418;SDS011;3751;51.852;9.718;2022-08-03T07:31:51;7.83;;;7.10;;
7418;SDS011;3751;51.852;9.718;2022-08-03T07:34:17;8.17;;;7.37;;
7418;SDS011;3751;51.852;9.718;2022-08-03T07:36:43;8.17;;;6.40;;
7418;SDS011;3751;51.852;9.718;2022-08-03T07:39:09;7.40;;;6.80;;
7418;SDS011;3751;51.852;9.718;2022-08-03T07:41:35;7.43;;;6.27;;
7418;SDS011;3751;51.852;9.718;2022-08-03T07:44:01;6.93;;;6.30;;
7418;SDS011;3751;51.852;9.718;2022-08-03T07:46:27;7.93;;;6.43;;
7418;SDS011;3751;51.852;9.718;2022-08-03T07:48:53;7.47;;;6.50;;
7418;SDS011;3751;51.852;9.718;2022-08-03T07:51:19;6.57;;;5.40;;
7418;SDS011;3751;51.852;9.718;2022-08-03T07:53:45;5.43;;;4.97;;
7418;SDS011;3751;51.852;9.718;2022-08-03T07:56:11;10.50;;;5.70;;
7418;SDS011;3751;51.852;9.718;2022-08-03T07:58:37;10.87;;;5.23;;
7418;SDS011;3751;51.852;9.718;2022-08-03T08:01:03;7.30;;;5.43;;
7418;SDS011;3751;51.852;9.718;2022-08-03T08:03:29;6.03;;;5.53;;
7418;SDS011;3751;51.852;9.718;2022-08-03T08:05:55;5.80;;;5.30;;
7418;SDS011;3751;51.852;9.718;2022-08-03T08:08:21;7.57;;;5.63;;
7418;SDS011;3751;51.852;9.718;2022-08-03T08:10:47;6.30;;;5.07;;
7418;SDS011;3751;51.852;9.718;2022-08-03T08:13:13;5.40;;;4.90;;
7418;SDS011;3751;51.852;9.718;2022-08-03T08:15:39;5.60;;;4.60;;
7418;SDS011;3751;51.852;9.718;2022-08-03T08:18:05;6.07;;;5.17;;
7418;SDS011;3751;51.852;9.718;2022-08-03T08:20:32;5.43;;;5.00;;
7418;SDS011;3751;51.852;9.718;2022-08-03T08:22:59;6.50;;;5.90;;
7418;SDS011;3751;51.852;9.718;2022-08-03T08:25:26;7.70;;;5.20;;
7418;SDS011;3751;51.852;9.718;2022-08-03T08:27:52;6.20;;;5.60;;
7418;SDS011;3751;51.852;9.718;2022-08-03T08:30:19;6.00;;;5.50;;
7418;SDS011;3751;51.852;9.718;2022-08-03T08:32:46;7.03;;;5.23;;
7418;SDS011;3751;51.852;9.718;2022-08-03T08:35:12;5.40;;;4.90;;
7418;SDS011;3751;51.852;9.718;2022-08-03T08:37:39;5.30;;;4.80;;
7418;SDS011;3751;51.852;9.718;2022-08-03T08:40:06;7.10;;;4.83;;
7418;SDS011;3751;51.852;9.718;2022-08-03T08:42:32;5.67;;;5.07;;
7418;SDS011;3751;51.852;9.718;2022-08-03T08:44:59;9.90;;;5.10;;
7418;SDS011;3751;51.852;9.718;2022-08-03T08:47:28;5.00;;;4.47;;
7418;SDS011;3751;51.852;9.718;2022-08-03T08:49:54;5.13;;;4.50;;
7418;SDS011;3751;51.852;9.718;2022-08-03T08:52:23;10.63;;;4.20;;
7418;SDS011;3751;51.852;9.718;2022-08-03T08:54:49;6.30;;;4.70;;
7418;SDS011;3751;51.852;9.718;2022-08-03T08:57:16;7.40;;;4.17;;
7418;SDS011;3751;51.852;9.718;2022-08-03T08:59:43;4.90;;;4.00;;
7418;SDS011;3751;51.852;9.718;2022-08-03T09:02:09;6.07;;;4.00;;
7418;SDS011;3751;51.852;9.718;2022-08-03T09:04:36;4.43;;;3.60;;
7418;SDS011;3751;51.852;9.718;2022-08-03T09:07:03;6.53;;;4.53;;
7418;SDS011;3751;51.852;9.718;2022-08-03T09:09:30;4.90;;;3.60;;
7418;SDS011;3751;51.852;9.718;2022-08-03T09:11:56;5.50;;;3.80;;
7418;SDS011;3751;51.852;9.718;2022-08-03T09:14:22;5.90;;;3.50;;
7418;SDS011;3751;51.852;9.718;2022-08-03T09:16:59;4.50;;;3.77;;
7418;SDS011;3751;51.852;9.718;2022-08-03T09:19:29;5.23;;;3.33;;
7418;SDS011;3751;51.852;9.718;2022-08-03T09:22:14;3.57;;;3.27;;
7418;SDS011;3751;51.852;9.718;2022-08-03T09:27:20;4.00;;;3.60;;
7418;SDS011;3751;51.852;9.718;2022-08-03T09:29:50;6.37;;;3.60;;
7418;SDS011;3751;51.852;9.718;2022-08-03T09:32:20;4.00;;;3.20;;
7418;SDS011;3751;51.852;9.718;2022-08-03T09:34:46;4.17;;;2.97;;
7418;SDS011;3751;51.852;9.718;2022-08-03T09:37:13;5.13;;;3.40;;
7418;SDS011;3751;51.852;9.718;2022-08-03T09:39:40;3.90;;;3.57;;
7418;SDS011;3751;51.852;9.718;2022-08-03T09:42:06;3.33;;;3.03;;
7418;SDS011;3751;51.852;9.718;2022-08-03T09:44:37;4.13;;;3.70;;
7418;SDS011;3751;51.852;9.718;2022-08-03T09:47:04;3.77;;;3.37;;
7418;SDS011;3751;51.852;9.718;2022-08-03T09:49:31;3.83;;;3.00;;
7418;SDS011;3751;51.852;9.718;2022-08-03T09:52:00;3.30;;;3.00;;
7418;SDS011;3751;51.852;9.718;2022-08-03T09:54:30;3.50;;;3.00;;
7418;SDS011;3751;51.852;9.718;2022-08-03T09:56:56;3.90;;;2.97;;
7418;SDS011;3751;51.852;9.718;2022-08-03T09:59:27;2.60;;;2.40;;
7418;SDS011;3751;51.852;9.718;2022-08-03T10:01:54;2.80;;;2.60;;
7418;SDS011;3751;51.852;9.718;2022-08-03T10:04:20;3.03;;;2.70;;
7418;SDS011;3751;51.852;9.718;2022-08-03T10:09:32;3.60;;;3.10;;
7418;SDS011;3751;51.852;9.718;2022-08-03T10:12:05;4.70;;;3.40;;
7418;SDS011;3751;51.852;9.718;2022-08-03T10:14:31;2.83;;;2.60;;
7418;SDS011;3751;51.852;9.718;2022-08-03T10:16:58;3.50;;;2.90;;
7418;SDS011;3751;51.852;9.718;2022-08-03T10:19:24;5.10;;;3.40;;
7418;SDS011;3751;51.852;9.718;2022-08-03T10:21:59;3.90;;;2.60;;
7418;SDS011;3751;51.852;9.718;2022-08-03T10:24:27;3.73;;;2.80;;
7418;SDS011;3751;51.852;9.718;2022-08-03T10:27:01;3.97;;;3.53;;
7418;SDS011;3751;51.852;9.718;2022-08-03T10:29:28;4.60;;;2.33;;
7418;SDS011;3751;51.852;9.718;2022-08-03T10:31:57;3.00;;;2.70;;
7418;SDS011;3751;51.852;9.718;2022-08-03T10:34:24;3.53;;;2.73;;
7418;SDS011;3751;51.852;9.718;2022-08-03T10:36:51;3.10;;;2.90;;
7418;SDS011;3751;51.852;9.718;2022-08-03T10:39:18;5.00;;;3.37;;
7418;SDS011;3751;51.852;9.718;2022-08-03T10:41:46;5.90;;;3.03;;
7418;SDS011;3751;51.852;9.718;2022-08-03T10:44:16;3.40;;;2.90;;
7418;SDS011;3751;51.852;9.718;2022-08-03T10:46:43;3.37;;;3.00;;
7418;SDS011;3751;51.852;9.718;2022-08-03T10:49:13;3.57;;;2.83;;
7418;SDS011;3751;51.852;9.718;2022-08-03T10:51:41;2.57;;;2.37;;
7418;SDS011;3751;51.852;9.718;2022-08-03T10:54:12;5.83;;;2.67;;
7418;SDS011;3751;51.852;9.718;2022-08-03T10:56:53;5.00;;;3.00;;
7418;SDS011;3751;51.852;9.718;2022-08-03T11:02:14;3.43;;;2.97;;
7418;SDS011;3751;51.852;9.718;2022-08-03T11:04:40;2.70;;;2.50;;
7418;SDS011;3751;51.852;9.718;2022-08-03T11:09:42;4.17;;;3.17;;
7418;SDS011;3751;51.852;9.718;2022-08-03T11:12:20;3.17;;;2.80;;
7418;SDS011;3751;51.852;9.718;2022-08-03T11:14:46;6.27;;;3.20;;
7418;SDS011;3751;51.852;9.718;2022-08-03T11:17:12;4.13;;;2.87;;
7418;SDS011;3751;51.852;9.718;2022-08-03T11:19:48;4.00;;;2.90;;
7418;SDS011;3751;51.852;9.718;2022-08-03T11:22:15;3.20;;;2.90;;
7418;SDS011;3751;51.852;9.718;2022-08-03T11:38:00;5.53;;;2.63;;
7418;SDS011;3751;51.852;9.718;2022-08-03T11:40:41;2.60;;;2.40;;
7418;SDS011;3751;51.852;9.718;2022-08-03T11:43:09;5.33;;;3.50;;
7418;SDS011;3751;51.852;9.718;2022-08-03T11:45:35;3.03;;;2.73;;
7418;SDS011;3751;51.852;9.718;2022-08-03T11:48:11;4.33;;;2.67;;
7418;SDS011;3751;51.852;9.718;2022-08-03T11:50:38;3.30;;;3.00;;
7418;SDS011;3751;51.852;9.718;2022-08-03T11:53:04;3.30;;;3.00;;
7418;SDS011;3751;51.852;9.718;2022-08-03T11:55:31;6.33;;;2.70;;
7418;SDS011;3751;51.852;9.718;2022-08-03T11:57:58;2.87;;;2.60;;
7418;SDS011;3751;51.852;9.718;2022-08-03T12:00:28;3.63;;;2.67;;
7418;SDS011;3751;51.852;9.718;2022-08-03T12:02:55;2.90;;;2.70;;
7418;SDS011;3751;51.852;9.718;2022-08-03T12:05:31;4.53;;;2.87;;
7418;SDS011;3751;51.852;9.718;2022-08-03T12:07:57;3.53;;;3.23;;
7418;SDS011;3751;51.852;9.718;2022-08-03T12:10:23;3.40;;;3.10;;
7418;SDS011;3751;51.852;9.718;2022-08-03T12:13:00;4.70;;;2.90;;
7418;SDS011;3751;51.852;9.718;2022-08-03T12:15:26;3.07;;;2.60;;
7418;SDS011;3751;51.852;9.718;2022-08-03T12:17:53;7.80;;;3.23;;
7418;SDS011;3751;51.852;9.718;2022-08-03T12:20:23;6.97;;;3.07;;
7418;SDS011;3751;51.852;9.718;2022-08-03T12:22:49;7.90;;;3.10;;
7418;SDS011;3751;51.852;9.718;2022-08-03T12:25:23;3.80;;;2.63;;
7418;SDS011;3751;51.852;9.718;2022-08-03T12:27:49;3.60;;;2.50;;
7418;SDS011;3751;51.852;9.718;2022-08-03T12:30:16;3.50;;;2.97;;
7418;SDS011;3751;51.852;9.718;2022-08-03T12:32:42;2.67;;;2.47;;
7418;SDS011;3751;51.852;9.718;2022-08-03T12:35:09;3.00;;;2.70;;
7418;SDS011;3751;51.852;9.718;2022-08-03T12:37:35;3.33;;;3.00;;
7418;SDS011;3751;51.852;9.718;2022-08-03T12:40:01;6.63;;;2.70;;
7418;SDS011;3751;51.852;9.718;2022-08-03T12:42:30;3.20;;;2.90;;
7418;SDS011;3751;51.852;9.718;2022-08-03T12:44:56;3.20;;;2.90;;
7418;SDS011;3751;51.852;9.718;2022-08-03T12:47:22;4.53;;;3.30;;
7418;SDS011;3751;51.852;9.718;2022-08-03T12:49:52;4.97;;;3.10;;
7418;SDS011;3751;51.852;9.718;2022-08-03T12:52:21;2.93;;;2.73;;
7418;SDS011;3751;51.852;9.718;2022-08-03T12:54:55;3.77;;;2.93;;
7418;SDS011;3751;51.852;9.718;2022-08-03T12:57:21;4.93;;;3.13;;
7418;SDS011;3751;51.852;9.718;2022-08-03T12:59:47;3.10;;;2.80;;
7418;SDS011;3751;51.852;9.718;2022-08-03T13:02:20;3.10;;;2.90;;
7418;SDS011;3751;51.852;9.718;2022-08-03T13:04:46;3.10;;;2.80;;
7418;SDS011;3751;51.852;9.718;2022-08-03T13:07:13;4.50;;;2.80;;
7418;SDS011;3751;51.852;9.718;2022-08-03T13:09:40;3.50;;;2.50;;
7418;SDS011;3751;51.852;9.718;2022-08-03T13:14:38;3.43;;;2.67;;
7418;SDS011;3751;51.852;9.718;2022-08-03T13:17:05;3.03;;;2.70;;
7418;SDS011;3751;51.852;9.718;2022-08-03T13:19:32;4.17;;;2.77;;
7418;SDS011;3751;51.852;9.718;2022-08-03T13:21:58;3.67;;;2.27;;
7418;SDS011;3751;51.852;9.718;2022-08-03T13:24:24;3.50;;;2.43;;
7418;SDS011;3751;51.852;9.718;2022-08-03T13:26:50;2.50;;;2.30;;
7418;SDS011;3751;51.852;9.718;2022-08-03T13:29:16;3.90;;;2.30;;
7418;SDS011;3751;51.852;9.718;2022-08-03T13:31:42;2.83;;;2.30;;
7418;SDS011;3751;51.852;9.718;2022-08-03T13:34:08;4.53;;;2.20;;
7418;SDS011;3751;51.852;9.718;2022-08-03T13:36:34;3.10;;;2.10;;
7418;SDS011;3751;51.852;9.718;2022-08-03T13:39:00;2.73;;;2.20;;
7418;SDS011;3751;51.852;9.718;2022-08-03T13:41:26;2.60;;;2.37;;
7418;SDS011;3751;51.852;9.718;2022-08-03T13:43:52;3.30;;;2.20;;
7418;SDS011;3751;51.852;9.718;2022-08-03T13:46:20;2.27;;;2.07;;
7418;SDS011;3751;51.852;9.718;2022-08-03T13:48:46;2.83;;;2.17;;
7418;SDS011;3751;51.852;9.718;2022-08-03T13:51:12;2.70;;;2.50;;
7418;SDS011;3751;51.852;9.718;2022-08-03T13:53:38;2.30;;;2.10;;
7418;SDS011;3751;51.852;9.718;2022-08-03T13:56:04;2.10;;;2.00;;
7418;SDS011;3751;51.852;9.718;2022-08-03T13:58:30;2.43;;;2.23;;
7418;SDS011;3751;51.852;9.718;2022-08-03T14:00:56;3.20;;;2.40;;
7418;SDS011;3751;51.852;9.718;2022-08-03T14:03:22;3.70;;;2.40;;
7418;SDS011;3751;51.852;9.718;2022-08-03T14:05:48;2.33;;;2.07;;
7418;SDS011;3751;51.852;9.718;2022-08-03T14:08:14;6.47;;;2.23;;
7418;SDS011;3751;51.852;9.718;2022-08-03T14:10:42;3.97;;;2.77;;
7418;SDS011;3751;51.852;9.718;2022-08-03T14:13:09;2.77;;;2.53;;
7418;SDS011;3751;51.852;9.718;2022-08-03T14:15:35;3.53;;;3.00;;
7418;SDS011;3751;51.852;9.718;2022-08-03T14:18:01;3.97;;;3.57;;
7418;SDS011;3751;51.852;9.718;2022-08-03T14:20:27;2.60;;;2.40;;
7418;SDS011;3751;51.852;9.718;2022-08-03T14:22:53;2.90;;;2.50;;
7418;SDS011;3751;51.852;9.718;2022-08-03T14:25:20;4.27;;;2.30;;
7418;SDS011;3751;51.852;9.718;2022-08-03T14:27:46;2.73;;;2.53;;
7418;SDS011;3751;51.852;9.718;2022-08-03T14:30:12;3.10;;;2.70;;
7418;SDS011;3751;51.852;9.718;2022-08-03T14:32:38;2.97;;;2.73;;
7418;SDS011;3751;51.852;9.718;2022-08-03T14:35:05;3.93;;;2.90;;
7418;SDS011;3751;51.852;9.718;2022-08-03T14:37:31;4.47;;;2.70;;
7418;SDS011;3751;51.852;9.718;2022-08-03T14:39:57;3.30;;;3.00;;
7418;SDS011;3751;51.852;9.718;2022-08-03T14:42:24;2.63;;;2.43;;
7418;SDS011;3751;51.852;9.718;2022-08-03T14:44:50;3.00;;;2.70;;
7418;SDS011;3751;51.852;9.718;2022-08-03T14:47:16;3.13;;;2.70;;
7418;SDS011;3751;51.852;9.718;2022-08-03T14:49:42;2.77;;;2.57;;
7418;SDS011;3751;51.852;9.718;2022-08-03T14:52:08;4.03;;;2.40;;
7418;SDS011;3751;51.852;9.718;2022-08-03T14:54:34;2.70;;;2.50;;
7418;SDS011;3751;51.852;9.718;2022-08-03T14:57:00;6.97;;;2.90;;
7418;SDS011;3751;51.852;9.718;2022-08-03T14:59:26;3.00;;;2.80;;
7418;SDS011;3751;51.852;9.718;2022-08-03T15:01:52;3.67;;;2.90;;
7418;SDS011;3751;51.852;9.718;2022-08-03T15:04:19;4.40;;;2.93;;
7418;SDS011;3751;51.852;9.718;2022-08-03T15:06:45;3.23;;;3.00;;
7418;SDS011;3751;51.852;9.718;2022-08-03T15:09:11;3.83;;;2.77;;
7418;SDS011;3751;51.852;9.718;2022-08-03T15:11:37;3.53;;;3.10;;
7418;SDS011;3751;51.852;9.718;2022-08-03T15:14:03;2.90;;;2.70;;
7418;SDS011;3751;51.852;9.718;2022-08-03T15:16:29;2.83;;;2.30;;
7418;SDS011;3751;51.852;9.718;2022-08-03T15:18:56;4.00;;;2.70;;
7418;SDS011;3751;51.852;9.718;2022-08-03T15:21:22;3.00;;;2.80;;
7418;SDS011;3751;51.852;9.718;2022-08-03T15:23:48;3.50;;;2.77;;
7418;SDS011;3751;51.852;9.718;2022-08-03T15:26:14;4.00;;;2.77;;
7418;SDS011;3751;51.852;9.718;2022-08-03T15:28:40;2.93;;;2.73;;
7418;SDS011;3751;51.852;9.718;2022-08-03T15:31:06;2.97;;;2.77;;
7418;SDS011;3751;51.852;9.718;2022-08-03T15:33:32;4.00;;;2.70;;
7418;SDS011;3751;51.852;9.718;2022-08-03T15:35:58;2.93;;;2.63;;
7418;SDS011;3751;51.852;9.718;2022-08-03T15:38:24;3.40;;;2.90;;
7418;SDS011;3751;51.852;9.718;2022-08-03T15:40:50;2.93;;;2.63;;
7418;SDS011;3751;51.852;9.718;2022-08-03T15:43:18;3.83;;;2.43;;
7418;SDS011;3751;51.852;9.718;2022-08-03T15:45:44;2.80;;;2.60;;
7418;SDS011;3751;51.852;9.718;2022-08-03T15:48:10;4.40;;;2.40;;
7418;SDS011;3751;51.852;9.718;2022-08-03T15:50:36;3.43;;;3.13;;
7418;SDS011;3751;51.852;9.718;2022-08-03T15:53:03;4.13;;;2.60;;
7418;SDS011;3751;51.852;9.718;2022-08-03T15:55:29;5.23;;;2.30;;